Logo AVAMET
Benvolgut visitant, si us plau, ingressa Recuperar contrasenya

Inforatge Albuixec

Dades diàries. Acumulats / Últims 30 dies disponibles

Data Temperatura (°C) Humitat rel. (%) Pressió rel. (hPa) Vent (km/h) Precipitació
Mínima Mitjana Màxima Amplitud
tèrmica
Mínima Mitjana Màxima Mínima Mitjana Màxima Predom. Mitjana Ràfega
màxima
Total
(mm)
Índex-n
Mínima Mitjana Màxima Mínima Mitjana Màxima n
0 a 1
P0 max
mm 5'
Dades mensuals acumulades fins l'últim dia disponible
01/2020 1,7 5,1 8,2 9,3 9,4 14,5 18,2 16,5 42 78 93 1.015 1.028 1.036   7,9 83,7 104,6
Dades anuals acumulades fins l'últim dia disponible
2020 1,7 5,1 8,2 9,3 9,4 14,5 18,2 16,5 42 78 93 1.015 1.028 1.036   7,9 83,7 104,6
Últims 30 dies disponibles
24-01-2020 7,4     11,1     14,4 7,0 69 86 91 1.023 1.024 1.025 N 4,3 14,5 0,0
23-01-2020 5,4     9,9     13,3 7,9 72 84 90 1.021 1.023 1.025 ENE 4,5 14,5 0,0
22-01-2020 8,2     11,1     14,5 6,3 78 86 92 1.019 1.021 1.023 NNE 11,4 33,8 7,2 0,52 2,80
21-01-2020 7,6     10,5     13,4 5,8 83 89 93 1.015 1.018 1.022 N 20,6 72,4 39,0 0,65 8,10
20-01-2020 5,3     6,9     9,4 4,1 65 83 91 1.021 1.022 1.024 N 35,4 83,7 38,2 0,42 2,70
19-01-2020 6,7     9,5     13,4 6,7 62 82 89 1.018 1.020 1.023 N 18,5 74,0 20,2 0,42 1,00
18-01-2020 7,4     12,2     17,9 10,5 50 65 74 1.021 1.029 1.034 WSW 6,4 35,4 0,0
17-01-2020 6,6     12,6     18,2 11,6 44 61 86 1.028 1.030 1.034 WSW 10,9 46,7 0,0
16-01-2020 5,1     10,1     16,4 11,3 56 78 87 1.028 1.030 1.031 WNW 4,2 17,7 0,0
15-01-2020 2,4     8,2     15,6 13,2 58 74 84 1.025 1.027 1.029 WNW 4,7 19,3 0,0
14-01-2020 1,7     7,4     13,4 11,7 42 66 82 1.023 1.024 1.026 W 4,0 14,5 0,0
13-01-2020 2,7     7,7     14,6 11,9 42 70 87 1.024 1.027 1.032 W 5,0 20,9 0,0
12-01-2020 2,9     7,3     12,9 10,0 56 75 87 1.031 1.032 1.034 W 4,0 16,1 0,0
11-01-2020 4,7     9,1     14,7 10,0 47 69 82 1.030 1.032 1.034 W 5,8 22,5 0,0
10-01-2020 6,7     10,3     15,8 9,1 46 76 90 1.025 1.028 1.031 W 7,9 59,5 0,0
09-01-2020 5,3     9,4     14,6 9,3 67 83 90 1.026 1.030 1.033 W 5,6 17,7 0,0
08-01-2020 4,3     8,7     14,7 10,4 65 82 92 1.030 1.032 1.034 W 3,9 25,7 0,0
07-01-2020 3,6     8,1     14,4 10,8 54 82 90 1.031 1.032 1.034 WNW 5,5 19,3 0,0
06-01-2020 4,6     8,8     13,9 9,3 68 80 88 1.030 1.031 1.033 WNW 5,0 16,1 0,0
05-01-2020 4,4     9,5     17,2 12,8 44 75 85 1.029 1.031 1.033 WSW 5,0 17,7 0,0
04-01-2020 4,8     8,9     15,6 10,8 56 80 92 1.033 1.034 1.036 WSW 5,5 17,7 0,0
03-01-2020 3,5     8,1     12,4 8,9 79 87 91 1.032 1.033 1.035 W 4,0 17,7 0,0
02-01-2020 6,7     9,6     13,5 6,8 71 83 90 1.032 1.034 1.036 W 3,9 16,1 0,0
01-01-2020 5,2     9,0     13,4 8,2 76 86 91 1.033 1.034 1.036 W 3,7 12,9 0,0
31-12-2019 4,8     8,2     14,3 9,5 68 85 90 1.034 1.035 1.037 OSO 3,8 12,9 0,0
30-12-2019 6,6     10,1     13,9 7,3 67 80 87 1.034 1.035 1.037 W 4,0 17,7 0,0
29-12-2019 7,8     10,1     13,9 6,1 63 81 90 1.032 1.034 1.036 WNW 5,1 22,5 0,0
28-12-2019 4,2     8,8     13,8 9,6 61 82 92 1.031 1.032 1.035 W 3,7 17,7 0,0
27-12-2019 7,6     11,2     16,3 8,7 54 78 89 1.030 1.031 1.033 W 4,5 14,5 0,0
26-12-2019 9,8     13,7     20,6 10,8 43 68 84 1.024 1.027 1.032 WNW 3,1 19,3 0,0
Últims 13 mesos disponibles
12/2019 4,2 9,8 17,3 13,4 13,5 17,6 24,6 20,4 52 72 91 1.003 1.021 1.035 WSW 9,7 82,1 63,0
11/2019 4,7 11,5 20,7 15,6 15,2 20,0 28,9 24,2 42 57 81 1.000 1.012 1.020 WSW 11,6 66,0 1,4
10/2019 10,7 15,6 20,6 19,7 17,3 24,1 28,2 17,5 47 72 86 1.009 1.018 1.024 WSW 6,6 41,8 19,2
09/2019 15,4 19,8 22,9 23,4 21,1 26,7 34,4 19,0 48 75 84 1.012 1.019 1.027 SSE 8,5 69,3 83,6
08/2019 17,9 22,0 25,8 25,7 26,6 29,1 41,6 23,7 47 74 84 1.012 1.018 1.022 SSE 8,1 59,6 4,1
07/2019 20,2 22,0 24,2 25,9 27,1 29,2 35,9 15,7 54 72 83 1.007 1.016 1.023 SSE 8,4 55,6 15,2
06/2019 11,8 17,7 22,0 21,8 20,5 25,1 31,2 19,4 49 70 84 1.010 1.017 1.024 SSE 8,8 61,1 0,0
05/2019 8,3 14,1 19,5 17,9 17,6 21,5 32,7 24,4 48 71 86 1.007 1.017 1.026 S 8,8 55,6 21,0
04/2019 8,3 11,2 14,4 14,9 15,4 19,0 26,4 18,1 49 69 93 1.001 1.015 1.027 SSO 11,4 82,0 44,2
03/2019 5,4 8,5 15,1 13,8 13,1 18,4 29,1 23,7 44 64 84 1.013 1.025 1.031 S 8,1 69,3 12,8
02/2019 2,2 6,0 11,1 11,2 13,4 16,6 23,4 21,2 34 68 82 996 1.027 1.036 SSO 7,8 72,4 0,0
01/2019 0,7 5,2 12,4 10,4 10,8 16,2 20,6 19,9 44 62 80 1.003 1.021 1.032 OSO 7,4 66,7 0,6
12/2018 3,6 7,9 11,9 12,3 14,1 17,7 23,4 19,8 52 72 88 1.010 1.027 1.032 OSO 6,2 53,7 10,2
Tots els anys disponibles
2019 0,7 13,7 25,8 17,9 10,8 22,0 41,6 40,9 34 69 93 996 1.019 1.036 SSE 8,8 82,1 265,1
2018 1,6 14,1 25,2 18,0 9,1 21,9 36,2 34,6 38 70 93 995 1.018 1.037 OSO 8,4 83,3 530,8
Temperatura (°C)
Humitat relativa (%)
Velocitat del vent i ràfega màxima (km/h)
Direcció del vent (°)
Pressió (hPa)
Precipitació (mm)
Nota sobre les dades: s'avisa a l'usuari de la provisionalitat i no oficialitat d'aquestes dades
Logo AVAMET blanc
Web allotjada a Sollutia
Llicència de Creative CommonsLa web d'AVAMET i els seus continguts estan subjectes a una llicència de
Reconeixement - No Comercial - Compartir igual
Últimes estacions: Xixona - Els Ameradors (Soci), Agres - El Tossal (Soci), Xàbia - Bevenguts (MeteoXàbia), Llíria (Aj. Soci/Inforatge), Orihuela - Lo Capitán, Cox & Guardamar del Segura - horta (Meteorihuela), l'Alcúdia - Carriona & el Real de Gandia (Inforatge), Benicàssim - les Vil·les (Soci),  l'Alfàs del Pi - l'Albir (Soci), - - -